Time;durP1;ratioP1;P1;durP2;ratioP2;P2;SDS_P1;SDS_P2;PMS_P1;PMS_P2;Temp;Humidity;BMP_temperature;BMP_pressure;BME280_temperature;BME280_humidity;BME280_pressure;Samples;Min_cycle;Max_cycle;Signal;HPM_P1;HPM_P2
2023/02/05 00:00:43;;;;;;;;;;;;;;;17.67;59.97;103270.69;2305299;77;51827;-74
2023/02/05 00:03:45;;;;;;;;;;;;;;;17.67;59.75;103277.37;2255648;77;52344;-73
2023/02/05 00:06:47;;;;;;;;;;;;;;;17.63;59.91;103282.12;2255727;77;50853;-73
2023/02/05 00:09:48;;;;;;;;;;;;;;;17.60;60.11;103277.00;2304765;77;50441;-73
2023/02/05 00:12:50;;;;;;;;;;;;;;;17.57;60.28;103282.58;2304612;77;50758;-74
2023/02/05 00:15:51;;;;;;;;;;;;;;;17.57;60.58;103285.72;2255758;77;51666;-74
2023/02/05 00:18:53;;;;;;;;;;;;;;;17.51;61.05;103274.98;2280571;77;51538;-74
2023/02/05 00:21:55;;;;;;;;;;;;;;;17.49;61.09;103276.91;2304591;77;50685;-74
2023/02/05 00:24:57;;;;;;;;;;;;;;;17.47;60.98;103282.88;2304584;77;50459;-74
2023/02/05 00:27:59;;;;;;;;;;;;;;;17.49;60.60;103278.24;2237903;78;49650;-74
2023/02/05 00:31:01;;;;;;;;;;;;;;;17.53;60.25;103275.73;2266723;78;51495;-74
2023/02/05 00:34:02;;;;;;;;;;;;;;;17.60;59.92;103277.00;2266390;78;50703;-74
2023/02/05 00:37:04;;;;;;;;;;;;;;;17.66;59.63;103264.13;2266526;78;51413;-74
2023/02/05 00:40:06;;;;;;;;;;;;;;;17.67;59.68;103261.80;2267986;78;52384;-74
2023/02/05 00:43:07;;;;;;;;;;;;;;;17.67;59.70;103259.98;2267773;78;51439;-74
2023/02/05 00:46:09;;;;;;;;;;;;;;;17.65;59.65;103265.95;2266563;78;51480;-74
2023/02/05 00:49:10;;;;;;;;;;;;;;;17.63;59.72;103274.09;2266647;78;50291;-74
2023/02/05 00:52:12;;;;;;;;;;;;;;;17.61;59.91;103279.18;2242906;78;51642;-74
2023/02/05 00:55:14;;;;;;;;;;;;;;;17.59;60.07;103272.59;2266696;77;51559;-74
2023/02/05 00:58:15;;;;;;;;;;;;;;;17.56;60.27;103267.47;2266443;77;51528;-74
2023/02/05 01:01:17;;;;;;;;;;;;;;;17.53;60.72;103257.48;2304754;77;51511;-74
2023/02/05 01:04:18;;;;;;;;;;;;;;;17.47;60.91;103254.77;2280308;77;51290;-74
2023/02/05 01:07:20;;;;;;;;;;;;;;;17.47;60.85;103249.87;2280572;77;50283;-74
2023/02/05 01:10:21;;;;;;;;;;;;;;;17.49;60.42;103248.80;2304677;77;50424;-73
2023/02/05 01:13:23;;;;;;;;;;;;;;;17.53;60.08;103242.75;2280114;77;50212;-74
2023/02/05 01:16:25;;;;;;;;;;;;;;;17.59;59.78;103236.45;2255634;77;52617;-74
2023/02/05 01:19:26;;;;;;;;;;;;;;;17.63;59.71;103231.25;2304733;77;51559;-73
2023/02/05 01:22:28;;;;;;;;;;;;;;;17.63;59.69;103225.89;2304559;77;52335;-73
2023/02/05 01:25:29;;;;;;;;;;;;;;;17.65;59.71;103220.44;2301280;77;51455;-73
2023/02/05 01:28:31;;;;;;;;;;;;;;;17.61;59.61;103213.09;2265564;77;52487;-73
2023/02/05 01:31:35;;;;;;;;;;;;;;;17.60;59.69;103210.55;2266760;78;51554;-73
2023/02/05 01:34:37;;;;;;;;;;;;;;;17.56;59.87;103209.91;2266475;78;50464;-73
2023/02/05 01:37:38;;;;;;;;;;;;;;;17.56;60.20;103213.92;2243326;78;50635;-72
2023/02/05 01:40:40;;;;;;;;;;;;;;;17.51;60.43;103212.56;2243260;78;50998;-73
2023/02/05 01:43:42;;;;;;;;;;;;;;;17.48;60.73;103207.44;2266602;78;50414;-74
2023/02/05 01:46:44;;;;;;;;;;;;;;;17.44;60.87;103200.10;2266654;78;50736;-74
2023/02/05 01:49:46;;;;;;;;;;;;;;;17.47;60.48;103203.91;2294224;77;50273;-73
2023/02/05 01:52:47;;;;;;;;;;;;;;;17.48;60.36;103204.27;2280359;77;49569;-73
2023/02/05 01:56:03;;;;;;;;;;;;;;;17.54;59.95;103198.95;2297186;77;50764;-73
2023/02/05 01:59:21;;;;;;;;;;;;;;;17.61;59.66;103203.73;2277438;77;50327;-74
2023/02/05 02:02:24;;;;;;;;;;;;;;;17.62;59.56;103193.41;2266761;78;51582;-74
2023/02/05 02:05:25;;;;;;;;;;;;;;;17.61;59.70;103187.66;2243353;78;51356;-73
2023/02/05 02:08:27;;;;;;;;;;;;;;;17.60;59.54;103183.78;2266613;78;51519;-74
2023/02/05 02:11:29;;;;;;;;;;;;;;;17.57;59.60;103188.88;2243486;78;50689;-73
2023/02/05 02:14:31;;;;;;;;;;;;;;;17.53;59.97;103179.36;2266547;78;50809;-73
2023/02/05 02:17:37;;;;;;;;;;;;;;;17.49;60.12;103173.84;2243103;78;51247;-74
2023/02/05 02:20:37;;;;;;;;;;;;;;;17.48;60.32;103170.81;2266623;77;22423;-74
2023/02/05 02:23:57;;;;;;;;;;;;;;;17.45;60.67;103160.34;2243142;78;50376;-73
2023/02/05 02:27:00;;;;;;;;;;;;;;;17.41;60.90;103157.51;2278531;77;52230;-74
2023/02/05 02:30:03;;;;;;;;;;;;;;;17.40;60.89;103160.67;2260206;78;52386;-74
2023/02/05 02:33:24;;;;;;;;;;;;;;;17.42;60.37;103159.23;2265612;78;52397;-74
2023/02/05 02:36:30;;;;;;;;;;;;;;;17.48;59.96;103157.92;2266775;78;50487;-74
2023/02/05 02:39:33;;;;;;;;;;;;;;;17.54;59.75;103148.92;2266822;78;50445;-74
2023/02/05 02:42:36;;;;;;;;;;;;;;;17.59;59.60;103144.57;2243251;78;51057;-74
2023/02/05 02:45:39;;;;;;;;;;;;;;;17.60;59.32;103138.27;2265814;78;51553;-74
2023/02/05 02:48:41;;;;;;;;;;;;;;;17.58;59.45;103129.00;2266688;78;54305;-73
2023/02/05 02:51:42;;;;;;;;;;;;;;;17.55;59.51;103129.23;2266874;78;51379;-74
2023/02/05 02:54:45;;;;;;;;;;;;;;;17.54;59.58;103137.38;2242987;78;51002;-74
2023/02/05 02:57:47;;;;;;;;;;;;;;;17.51;59.75;103132.25;2277250;77;50846;-73
2023/02/05 03:00:49;;;;;;;;;;;;;;;17.49;60.06;103141.73;2266809;78;51621;-73
2023/02/05 03:03:52;;;;;;;;;;;;;;;17.47;60.35;103139.67;2266771;78;51479;-74
2023/02/05 03:06:54;;;;;;;;;;;;;;;17.40;60.65;103139.27;2266874;78;50927;-73
2023/02/05 03:09:57;;;;;;;;;;;;;;;17.38;60.81;103135.00;2266764;78;50220;-74
2023/02/05 03:12:58;;;;;;;;;;;;;;;17.40;60.67;103139.27;2266051;77;50391;-75
2023/02/05 03:16:00;;;;;;;;;;;;;;;17.41;60.10;103135.61;2243750;78;50657;-74
2023/02/05 03:19:04;;;;;;;;;;;;;;;17.48;59.77;103141.37;2243613;78;52540;-73
2023/02/05 03:22:05;;;;;;;;;;;;;;;17.54;59.50;103136.88;2266871;77;22307;-74
2023/02/05 03:25:06;;;;;;;;;;;;;;;17.59;59.51;103138.73;2266686;78;51572;-73
2023/02/05 03:28:08;;;;;;;;;;;;;;;17.58;59.32;103134.84;2285085;77;51602;-74
2023/02/05 03:31:14;;;;;;;;;;;;;;;17.58;59.41;103137.52;2303852;76;52698;-74
2023/02/05 03:34:23;;;;;;;;;;;;;;;17.56;59.48;103147.48;2301884;77;50773;-73
2023/02/05 03:37:43;;;;;;;;;;;;;;;17.52;59.48;103153.56;2302390;77;50265;-74
2023/02/05 03:40:52;;;;;;;;;;;;;;;17.50;59.75;103146.13;2302257;76;50379;-74
2023/02/05 03:43:58;;;;;;;;;;;;;;;17.49;60.08;103139.05;2303580;76;52688;-73
2023/02/05 03:47:18;;;;;;;;;;;;;;;17.43;60.48;103134.66;2302219;77;50446;-74
2023/02/05 03:50:28;;;;;;;;;;;;;;;17.38;60.47;103130.98;2302277;77;50796;-74
2023/02/05 03:53:37;;;;;;;;;;;;;;;17.38;60.52;103131.83;2302027;77;51484;-74
2023/02/05 03:56:49;;;;;;;;;;;;;;;17.40;60.04;103138.42;2283195;76;49632;-74
2023/02/05 03:59:51;;;;;;;;;;;;;;;17.46;59.76;103145.13;2275553;77;51568;-74
2023/02/05 04:02:52;;;;;;;;;;;;;;;17.52;59.37;103140.64;2243213;78;51050;-74
2023/02/05 04:05:55;;;;;;;;;;;;;;;17.55;59.19;103139.95;2243474;78;51509;-74
2023/02/05 04:08:56;;;;;;;;;;;;;;;17.57;59.20;103152.73;2219281;78;51224;-73
2023/02/05 04:11:58;;;;;;;;;;;;;;;17.56;59.22;103152.84;2243659;78;50759;-73
2023/02/05 04:15:02;;;;;;;;;;;;;;;17.54;59.33;103156.95;2244440;78;51415;-74
2023/02/05 04:18:03;;;;;;;;;;;;;;;17.52;59.28;103154.02;2267802;78;50784;-73
2023/02/05 04:21:05;;;;;;;;;;;;;;;17.48;59.66;103169.47;2218942;78;50897;-73
2023/02/05 04:24:07;;;;;;;;;;;;;;;17.47;59.78;103172.25;2266636;78;51611;-74
2023/02/05 04:27:08;;;;;;;;;;;;;;;17.46;60.04;103171.41;2278950;77;50637;-73
2023/02/05 04:30:10;;;;;;;;;;;;;;;17.39;60.37;103161.66;2276019;77;51531;-73
2023/02/05 04:33:12;;;;;;;;;;;;;;;17.35;60.43;103167.34;2255737;77;51478;-73
2023/02/05 04:36:14;;;;;;;;;;;;;;;17.36;60.26;103167.70;2305016;77;50292;-73
2023/02/05 04:39:15;;;;;;;;;;;;;;;17.40;59.71;103159.83;2305278;77;50265;-73
2023/02/05 04:42:17;;;;;;;;;;;;;;;17.45;59.43;103159.00;2281162;77;50673;-73
2023/02/05 04:45:18;;;;;;;;;;;;;;;17.52;59.19;103159.38;2281118;77;52512;-73
2023/02/05 04:48:22;;;;;;;;;;;;;;;17.56;59.12;103157.70;2305944;77;50718;-74
2023/02/05 04:51:24;;;;;;;;;;;;;;;17.56;58.95;103155.52;2285031;77;50624;-73
2023/02/05 04:54:27;;;;;;;;;;;;;;;17.56;59.00;103156.86;2283096;77;50716;-73
2023/02/05 04:57:29;;;;;;;;;;;;;;;17.54;59.27;103147.59;2264972;78;50125;-73
2023/02/05 05:00:31;;;;;;;;;;;;;;;17.51;59.25;103141.13;2267312;78;50774;-73
2023/02/05 05:03:33;;;;;;;;;;;;;;;17.48;59.36;103137.84;2270082;77;51589;-73
2023/02/05 05:06:34;;;;;;;;;;;;;;;17.46;59.68;103137.95;2270245;78;51577;-73
2023/02/05 05:09:36;;;;;;;;;;;;;;;17.45;59.76;103146.95;2219269;77;49558;-73
2023/02/05 05:12:38;;;;;;;;;;;;;;;17.38;60.21;103148.37;2244749;78;52711;-72
2023/02/05 05:15:39;;;;;;;;;;;;;;;17.34;60.27;103145.09;2271414;77;51549;-74
2023/02/05 05:18:41;;;;;;;;;;;;;;;17.35;60.15;103152.13;2244994;78;50782;-74
2023/02/05 05:21:42;;;;;;;;;;;;;;;17.39;59.57;103144.72;2267152;77;51539;-75
2023/02/05 05:24:44;;;;;;;;;;;;;;;17.44;59.31;103136.35;2263470;78;50067;-74
2023/02/05 05:27:46;;;;;;;;;;;;;;;17.51;59.14;103142.96;2262406;77;50147;-74
2023/02/05 05:30:47;;;;;;;;;;;;;;;17.55;59.12;103133.25;2304014;76;50081;-74
2023/02/05 05:33:49;;;;;;;;;;;;;;;17.57;58.98;103143.38;2303976;76;51638;-74
2023/02/05 05:36:52;;;;;;;;;;;;;;;17.55;59.22;103146.64;2303818;76;50110;-74
2023/02/05 05:46:34;;;;;;;;;;;;;;;17.50;59.31;103162.68;2304404;76;22348;-74
2023/02/05 05:49:35;;;;;;;;;;;;;;;17.48;59.53;103160.11;2302347;77;50231;-74
2023/02/05 05:52:37;;;;;;;;;;;;;;;17.45;59.68;103170.20;2302109;77;50753;-74
2023/02/05 05:55:39;;;;;;;;;;;;;;;17.39;59.99;103174.16;2299491;76;51858;-74
2023/02/05 05:58:40;;;;;;;;;;;;;;;17.35;60.00;103175.37;2268380;78;52782;-73
2023/02/05 06:01:42;;;;;;;;;;;;;;;17.38;59.71;103180.49;2243479;78;51491;-73
2023/02/05 06:04:43;;;;;;;;;;;;;;;17.41;59.40;103173.08;2243170;78;52271;-74
2023/02/05 06:07:45;;;;;;;;;;;;;;;17.49;59.28;103163.63;2266853;78;50211;-74
2023/02/05 06:10:46;;;;;;;;;;;;;;;17.54;59.13;103156.11;2243248;78;50315;-74
2023/02/05 06:13:48;;;;;;;;;;;;;;;17.59;58.86;103151.27;2266790;78;50391;-73
2023/02/05 06:16:51;;;;;;;;;;;;;;;17.59;58.81;103153.45;2243448;78;50660;-74
2023/02/05 06:19:52;;;;;;;;;;;;;;;17.59;58.80;103152.11;2243678;78;50217;-74
2023/02/05 06:22:54;;;;;;;;;;;;;;;17.57;58.86;103156.75;2243141;78;51483;-73
2023/02/05 06:25:56;;;;;;;;;;;;;;;17.56;58.96;103148.83;2271393;77;50258;-74
2023/02/05 06:29:01;;;;;;;;;;;;;;;17.52;58.92;103150.89;2278706;77;50514;-74
2023/02/05 06:32:00;;;;;;;;;;;;;;;17.50;59.04;103148.80;2266497;78;22329;-73
2023/02/05 06:35:02;;;;;;;;;;;;;;;17.48;59.20;103152.08;2219121;78;51725;-74
2023/02/05 06:38:05;;;;;;;;;;;;;;;17.45;59.47;103148.79;2266842;78;50357;-74
2023/02/05 06:41:06;;;;;;;;;;;;;;;17.41;59.78;103154.83;2266929;78;50366;-73
2023/02/05 06:44:08;;;;;;;;;;;;;;;17.38;59.51;103151.05;2243782;78;50768;-73
2023/02/05 06:47:09;;;;;;;;;;;;;;;17.40;59.31;103147.78;2219121;78;52465;-73
2023/02/05 06:50:11;;;;;;;;;;;;;;;17.48;59.04;103152.08;2266890;78;51466;-74
2023/02/05 06:53:13;;;;;;;;;;;;;;;17.54;58.80;103148.92;2266728;78;50844;-72
2023/02/05 06:56:16;;;;;;;;;;;;;;;17.58;58.56;103145.06;2243876;78;51415;-72
2023/02/05 06:59:18;;;;;;;;;;;;;;;17.61;58.56;103151.52;2282827;77;22390;-72
2023/02/05 07:02:19;;;;;;;;;;;;;;;17.59;58.60;103156.62;2303843;77;50189;-72
2023/02/05 07:05:21;;;;;;;;;;;;;;;17.58;58.75;103155.77;2304858;77;51696;-72
2023/02/05 07:08:22;;;;;;;;;;;;;;;17.55;58.79;103157.34;2280806;77;49921;-73
2023/02/05 07:11:24;;;;;;;;;;;;;;;17.53;58.96;103163.30;2280567;77;49560;-74
2023/02/05 07:14:26;;;;;;;;;;;;;;;17.49;58.96;103167.16;2304791;77;50511;-73
2023/02/05 07:17:27;;;;;;;;;;;;;;;17.47;59.13;103167.78;2280806;77;51417;-73
2023/02/05 07:20:29;;;;;;;;;;;;;;;17.47;59.29;103182.50;2305065;77;51525;-73
2023/02/05 07:23:30;;;;;;;;;;;;;;;17.43;59.35;103169.45;2255865;77;51030;-73
2023/02/05 07:26:32;;;;;;;;;;;;;;;17.48;59.94;103160.11;2268775;77;50965;-72
2023/02/05 07:29:33;;;;;;;;;;;;;;;17.52;59.97;103154.91;2292250;77;50395;-74
2023/02/05 07:32:35;;;;;;;;;;;;;;;17.62;59.75;103145.22;2280813;77;50389;-70
2023/02/05 07:35:37;;;;;;;;;;;;;;;17.67;59.74;103142.66;2255816;77;49632;-70
2023/02/05 07:38:38;;;;;;;;;;;;;;;17.76;59.60;103145.50;2305041;77;50265;-70
2023/02/05 07:41:40;;;;;;;;;;;;;;;17.83;59.26;103157.48;2305032;77;51471;-69
2023/02/05 07:44:41;;;;;;;;;;;;;;;17.81;59.22;103154.56;2304773;77;50245;-69
2023/02/05 07:47:43;;;;;;;;;;;;;;;17.80;59.20;103151.49;2256140;77;51403;-70
2023/02/05 07:50:45;;;;;;;;;;;;;;;17.75;59.19;103139.78;2280775;77;51506;-70
2023/02/05 07:53:46;;;;;;;;;;;;;;;17.67;58.07;103138.15;2304842;77;51478;-70
2023/02/05 07:56:48;;;;;;;;;;;;;;;17.56;58.22;103130.94;2305094;77;51484;-70
2023/02/05 07:59:49;;;;;;;;;;;;;;;17.55;58.15;103125.22;2280992;77;49595;-71
2023/02/05 08:02:51;;;;;;;;;;;;;;;17.62;57.76;103127.81;2280676;77;50347;-68
2023/02/05 08:05:53;;;;;;;;;;;;;;;17.52;57.61;103129.48;2280692;77;50434;-70
2023/02/05 08:08:54;;;;;;;;;;;;;;;17.54;57.57;103130.19;2280752;77;50692;-71
2023/02/05 08:11:56;;;;;;;;;;;;;;;17.62;57.43;103129.61;2255852;77;49451;-71
2023/02/05 08:14:58;;;;;;;;;;;;;;;17.66;57.34;103128.91;2304940;77;51506;-70
2023/02/05 08:17:59;;;;;;;;;;;;;;;17.72;57.26;103129.77;2281147;77;51243;-70
2023/02/05 08:21:03;;;;;;;;;;;;;;;17.76;57.16;103132.59;2280837;77;51589;-70
2023/02/05 08:24:05;;;;;;;;;;;;;;;17.78;57.17;103129.33;2305091;77;22247;-70
2023/02/05 08:27:06;;;;;;;;;;;;;;;17.77;57.09;103120.91;2280846;77;51490;-69
2023/02/05 08:30:09;;;;;;;;;;;;;;;17.80;57.02;103117.55;2305073;77;51503;-71
2023/02/05 08:33:11;;;;;;;;;;;;;;;17.79;57.05;103110.47;2304936;77;51551;-69
2023/02/05 08:36:12;;;;;;;;;;;;;;;17.78;57.15;103117.27;2280847;77;51100;-70
2023/02/05 08:39:14;;;;;;;;;;;;;;;17.73;57.29;103116.28;2280895;77;50598;-70
2023/02/05 08:42:15;;;;;;;;;;;;;;;17.70;57.36;103112.97;2281136;77;50631;-69
2023/02/05 08:45:17;;;;;;;;;;;;;;;17.67;57.52;103108.70;2305185;77;50451;-70
2023/02/05 08:48:19;;;;;;;;;;;;;;;17.66;57.59;103111.51;2280751;77;50972;-70
2023/02/05 08:51:21;;;;;;;;;;;;;;;17.66;57.64;103112.84;2305094;77;50450;-70
2023/02/05 08:54:23;;;;;;;;;;;;;;;17.64;57.59;103116.48;2304907;77;51519;-70
2023/02/05 08:57:29;;;;;;;;;;;;;;;17.67;57.59;103126.09;2305129;77;50462;-70
2023/02/05 09:00:32;;;;;;;;;;;;;;;17.68;57.61;103116.27;2256293;77;50842;-70
2023/02/05 09:03:33;;;;;;;;;;;;;;;17.70;57.48;103112.50;2280946;77;50481;-70
2023/02/05 09:06:35;;;;;;;;;;;;;;;17.75;57.35;103110.79;2305101;77;51551;-70
2023/02/05 09:09:37;;;;;;;;;;;;;;;17.80;57.27;103114.00;2281135;77;51596;-71
2023/02/05 09:12:39;;;;;;;;;;;;;;;17.80;57.26;103106.84;2280604;77;51033;-70
2023/02/05 09:15:41;;;;;;;;;;;;;;;17.80;57.26;103103.28;2280901;77;51582;-71
2023/02/05 09:18:43;;;;;;;;;;;;;;;17.78;57.36;103108.75;2280720;77;52151;-72
2023/02/05 09:21:44;;;;;;;;;;;;;;;17.74;57.47;103117.13;2304965;77;50382;-71
2023/02/05 09:24:47;;;;;;;;;;;;;;;17.72;57.53;103122.59;2280987;77;51511;-70
2023/02/05 09:27:49;;;;;;;;;;;;;;;17.67;57.67;103122.08;2256628;77;50965;-70
2023/02/05 09:30:50;;;;;;;;;;;;;;;17.64;57.71;103112.46;2280957;77;51431;-70
2023/02/05 09:33:54;;;;;;;;;;;;;;;17.67;57.67;103111.86;2305015;77;50204;-69
2023/02/05 09:36:57;;;;;;;;;;;;;;;17.64;57.68;103115.14;2281264;77;22446;-71
2023/02/05 09:39:58;;;;;;;;;;;;;;;17.68;57.65;103118.95;2280511;77;52647;-70
2023/02/05 09:43:05;;;;;;;;;;;;;;;17.69;57.60;103121.48;2304815;77;51467;-70
2023/02/05 09:46:11;;;;;;;;;;;;;;;17.74;57.44;103124.67;2304993;77;52920;-70
2023/02/05 09:49:17;;;;;;;;;;;;;;;17.80;57.33;103120.23;2304993;77;50394;-71
2023/02/05 09:52:20;;;;;;;;;;;;;;;17.82;57.35;103114.74;2280453;77;50950;-72
2023/02/05 09:55:23;;;;;;;;;;;;;;;17.83;58.03;103115.13;2305049;77;51528;-72
2023/02/05 09:58:26;;;;;;;;;;;;;;;17.80;58.32;103117.55;2305021;77;51490;-71
2023/02/05 10:01:46;;;;;;;;;;;;;;;17.81;58.71;103123.77;2305005;77;50419;-72
2023/02/05 10:04:47;;;;;;;;;;;;;;;17.77;59.46;103114.20;2280610;77;50972;-75
2023/02/05 10:07:50;;;;;;;;;;;;;;;17.75;59.50;103121.50;2280987;77;51514;-75
2023/02/05 10:10:53;;;;;;;;;;;;;;;17.68;59.48;103114.93;2305022;77;50467;-72
2023/02/05 10:14:08;;;;;;;;;;;;;;;17.60;60.41;103106.98;2280434;77;51768;-75
2023/02/05 10:17:28;;;;;;;;;;;;;;;17.56;60.60;103105.50;2280311;77;52635;-75
2023/02/05 10:20:31;;;;;;;;;;;;;;;17.57;61.29;103111.24;2304960;77;51534;-75
2023/02/05 10:23:37;;;;;;;;;;;;;;;17.60;61.44;103108.33;2304621;77;51498;-74
2023/02/05 10:26:43;;;;;;;;;;;;;;;17.66;61.07;103103.48;2304742;77;51550;-74
2023/02/05 10:30:05;;;;;;;;;;;;;;;17.66;61.28;103095.45;2280555;77;51016;-74
2023/02/05 10:33:08;;;;;;;;;;;;;;;17.66;61.35;103092.77;2280376;77;51351;-75
2023/02/05 10:36:10;;;;;;;;;;;;;;;17.66;61.47;103086.08;2304059;77;49743;-75
2023/02/05 10:39:13;;;;;;;;;;;;;;;17.64;61.57;103081.67;2304834;77;50487;-75
2023/02/05 10:42:19;;;;;;;;;;;;;;;17.58;61.67;103064.75;2279613;77;51907;-74
2023/02/05 10:45:22;;;;;;;;;;;;;;;17.56;61.70;103066.69;2304933;77;51436;-75
2023/02/05 10:48:25;;;;;;;;;;;;;;;17.54;61.77;103065.94;2304944;77;50776;-75
2023/02/05 10:51:35;;;;;;;;;;;;;;;17.52;61.57;103069.25;2304926;77;50671;-75
2023/02/05 10:54:37;;;;;;;;;;;;;;;17.52;61.49;103071.92;2280319;77;51713;-75
2023/02/05 10:57:38;;;;;;;;;;;;;;;17.49;61.28;103061.42;2304734;77;50682;-75
2023/02/05 11:00:40;;;;;;;;;;;;;;;17.51;61.09;103070.20;2304883;77;50378;-74
2023/02/05 11:03:55;;;;;;;;;;;;;;;17.50;60.98;103060.97;2304716;77;50197;-74
2023/02/05 11:06:57;;;;;;;;;;;;;;;17.50;60.87;103054.27;2280586;77;49645;-74
2023/02/05 11:10:18;;;;;;;;;;;;;;;17.48;60.81;103053.53;2304919;77;50765;-75
2023/02/05 11:13:20;;;;;;;;;;;;;;;17.46;60.83;103052.79;2304696;77;51535;-75
2023/02/05 11:16:22;;;;;;;;;;;;;;;17.43;60.84;103047.19;2304844;77;50768;-74
2023/02/05 11:19:27;;;;;;;;;;;;;;;17.41;60.89;103051.80;2279519;77;50994;-74
2023/02/05 11:22:30;;;;;;;;;;;;;;;17.34;61.12;103045.19;2304732;77;51582;-74
2023/02/05 11:25:31;;;;;;;;;;;;;;;17.33;61.18;103056.39;2304992;77;50807;-74
2023/02/05 11:28:36;;;;;;;;;;;;;;;17.30;61.17;103065.14;2280755;77;51515;-74
2023/02/05 11:31:38;;;;;;;;;;;;;;;17.29;61.20;103056.73;2280508;77;52411;-75
2023/02/05 11:34:39;;;;;;;;;;;;;;;17.33;60.97;103050.19;2280541;77;51411;-73
2023/02/05 11:37:41;;;;;;;;;;;;;;;17.38;60.79;103053.37;2305067;77;50318;-75
2023/02/05 11:40:43;;;;;;;;;;;;;;;17.43;60.58;103045.00;2305090;77;50260;-74
2023/02/05 11:43:50;;;;;;;;;;;;;;;17.48;60.40;103047.69;2255811;77;51217;-74
2023/02/05 11:46:59;;;;;;;;;;;;;;;17.57;60.15;103038.97;2305624;77;51524;-74
2023/02/05 11:49:58;;;;;;;;;;;;;;;17.62;59.93;103039.46;2302046;77;22278;-74
2023/02/05 11:53:15;;;;;;;;;;;;;;;17.66;59.75;103040.55;2304624;77;50258;-74
2023/02/05 11:56:19;;;;;;;;;;;;;;;17.66;59.67;103041.41;2280375;77;51015;-75
2023/02/05 11:59:22;;;;;;;;;;;;;;;17.66;59.56;103056.13;2304793;77;50627;-74
2023/02/05 12:02:28;;;;;;;;;;;;;;;17.64;59.55;103048.70;2304471;77;50210;-74
2023/02/05 12:05:34;;;;;;;;;;;;;;;17.59;59.60;103047.70;2304716;77;51297;-74
2023/02/05 12:08:49;;;;;;;;;;;;;;;17.56;59.64;103051.96;2280418;77;52553;-73
2023/02/05 12:12:17;;;;;;;;;;;;;;;17.52;59.67;103048.30;2304672;77;50291;-74
2023/02/05 12:15:19;;;;;;;;;;;;;;;17.48;59.96;103040.99;2304261;77;22545;-74
2023/02/05 12:18:25;;;;;;;;;;;;;;;17.46;59.99;103039.41;2304813;77;51479;-74
2023/02/05 12:21:32;;;;;;;;;;;;;;;17.46;59.87;103033.56;2280405;77;52347;-74
2023/02/05 12:24:47;;;;;;;;;;;;;;;17.47;59.78;103037.96;2304453;77;52321;-74
2023/02/05 12:27:50;;;;;;;;;;;;;;;17.54;59.65;103036.50;2304622;77;51537;-74
2023/02/05 12:30:56;;;;;;;;;;;;;;;17.60;59.50;103036.05;2304735;77;52428;-74
2023/02/05 12:34:06;;;;;;;;;;;;;;;17.62;59.34;103035.45;2280043;77;50101;-73
2023/02/05 12:37:12;;;;;;;;;;;;;;;17.63;59.24;103029.59;2304388;77;51488;-74
2023/02/05 12:40:24;;;;;;;;;;;;;;;17.62;59.27;103024.73;2304595;77;50686;-74
2023/02/05 12:43:38;;;;;;;;;;;;;;;17.59;59.28;103023.61;2304512;77;50352;-74
2023/02/05 12:46:45;;;;;;;;;;;;;;;17.56;59.31;103017.66;2280481;77;51801;-74
2023/02/05 12:49:48;;;;;;;;;;;;;;;17.50;59.41;103016.30;2304691;77;50789;-74
2023/02/05 12:52:51;;;;;;;;;;;;;;;17.49;59.50;103028.45;2304053;77;50488;-74
2023/02/05 12:56:10;;;;;;;;;;;;;;;17.45;59.67;103030.53;2304675;77;50465;-75
2023/02/05 12:59:12;;;;;;;;;;;;;;;17.45;59.66;103027.85;2280570;77;51296;-74
2023/02/05 13:02:18;;;;;;;;;;;;;;;17.45;59.63;103022.99;2304396;77;51584;-74
2023/02/05 13:05:22;;;;;;;;;;;;;;;17.48;59.46;103028.10;2294077;76;50772;-73
2023/02/05 13:08:25;;;;;;;;;;;;;;;17.49;59.64;103040.50;2279940;77;51479;-74
2023/02/05 13:11:28;;;;;;;;;;;;;;;17.50;60.26;103041.73;2290076;77;51517;-74
2023/02/05 13:14:31;;;;;;;;;;;;;;;17.56;60.37;103042.59;2287969;76;50676;-73
2023/02/05 13:17:34;;;;;;;;;;;;;;;17.59;60.30;103040.16;2258461;77;50446;-74
2023/02/05 13:30:50;;;;;;;;;;;;;;;17.64;60.38;103036.16;2280053;77;22444;-75
2023/02/05 13:33:52;;;;;;;;;;;;;;;17.64;60.43;103036.16;2266696;78;51552;-74
2023/02/05 13:37:01;;;;;;;;;;;;;;;17.64;60.40;103042.84;2273556;77;52601;-75
2023/02/05 13:40:07;;;;;;;;;;;;;;;17.61;60.17;103051.13;2266313;76;50565;-75
2023/02/05 13:43:29;;;;;;;;;;;;;;;17.54;60.22;103049.03;2285552;77;51392;-74
2023/02/05 13:46:35;;;;;;;;;;;;;;;17.50;60.19;103056.45;2302585;76;51629;-74
2023/02/05 13:49:38;;;;;;;;;;;;;;;17.47;60.19;103067.41;2256891;78;50214;-74
2023/02/05 13:52:47;;;;;;;;;;;;;;;17.46;60.12;103069.69;2266460;77;52592;-74
2023/02/05 13:56:07;;;;;;;;;;;;;;;17.43;60.08;103075.28;2266810;78;50326;-74
2023/02/05 13:59:29;;;;;;;;;;;;;;;17.42;60.07;103078.94;2266800;78;50334;-74
2023/02/05 14:02:38;;;;;;;;;;;;;;;17.42;60.04;103078.94;2267163;77;52740;-74
2023/02/05 14:05:40;;;;;;;;;;;;;;;17.40;60.06;103071.51;2266657;78;51521;-74
2023/02/05 14:08:42;;;;;;;;;;;;;;;17.40;60.07;103060.80;2266832;78;51614;-75
2023/02/05 14:11:45;;;;;;;;;;;;;;;17.39;60.03;103062.63;2266783;78;51266;-74
2023/02/05 14:14:49;;;;;;;;;;;;;;;17.39;60.00;103059.08;2243277;78;50922;-73
2023/02/05 14:17:51;;;;;;;;;;;;;;;17.36;59.99;103055.30;2263111;78;51380;-74
2023/02/05 14:20:53;;;;;;;;;;;;;;;17.35;59.96;103044.24;2266834;78;50422;-74
2023/02/05 14:23:55;;;;;;;;;;;;;;;17.35;59.78;103037.06;2266657;78;50378;-74
2023/02/05 14:26:59;;;;;;;;;;;;;;;17.45;59.51;103050.60;2217440;78;52537;-73
2023/02/05 14:30:01;;;;;;;;;;;;;;;17.60;59.05;103056.13;2244320;77;22305;-74
2023/02/05 14:33:04;;;;;;;;;;;;;;;17.67;58.80;103043.09;2284992;77;50981;-74
2023/02/05 14:36:17;;;;;;;;;;;;;;;17.72;58.61;103038.73;2302222;77;50805;-74
2023/02/05 14:39:19;;;;;;;;;;;;;;;17.79;58.36;103040.84;2278120;77;50302;-75
2023/02/05 14:42:21;;;;;;;;;;;;;;;17.78;58.30;103024.89;2302078;77;50409;-74
2023/02/05 14:45:23;;;;;;;;;;;;;;;17.77;58.25;103020.48;2302212;77;50320;-73
2023/02/05 14:48:26;;;;;;;;;;;;;;;17.74;58.31;103012.20;2302211;77;51496;-73
2023/02/05 14:51:31;;;;;;;;;;;;;;;17.73;58.32;103013.68;2278254;77;52679;-74
2023/02/05 14:54:37;;;;;;;;;;;;;;;17.68;58.38;103021.22;2302160;77;50356;-74
2023/02/05 14:57:41;;;;;;;;;;;;;;;17.55;58.75;103018.14;2302310;76;50266;-74
2023/02/05 15:00:43;;;;;;;;;;;;;;;17.45;59.08;103016.30;2298130;76;51600;-74
2023/02/05 15:03:44;;;;;;;;;;;;;;;17.42;59.07;103025.41;2265498;77;51740;-73
2023/02/05 15:06:46;;;;;;;;;;;;;;;17.46;59.00;103030.88;2302234;77;51541;-74
2023/02/05 15:09:49;;;;;;;;;;;;;;;17.57;58.73;103028.25;2302395;77;51473;-74
2023/02/05 15:12:55;;;;;;;;;;;;;;;17.63;58.55;103035.80;2302110;76;51565;-73
2023/02/05 15:16:07;;;;;;;;;;;;;;;17.72;58.29;103045.42;2277973;77;51552;-74
2023/02/05 15:19:09;;;;;;;;;;;;;;;17.75;58.13;103056.77;2302268;77;51542;-73
2023/02/05 15:22:12;;;;;;;;;;;;;;;17.79;58.04;103064.06;2301865;76;50741;-74
2023/02/05 15:25:16;;;;;;;;;;;;;;;17.75;57.97;103061.25;2302364;76;51538;-73
2023/02/05 15:28:18;;;;;;;;;;;;;;;17.78;57.91;103069.07;2277942;77;52381;-73
2023/02/05 15:31:21;;;;;;;;;;;;;;;17.75;57.96;103085.34;2297838;77;50674;-73
2023/02/05 15:34:28;;;;;;;;;;;;;;;17.68;58.08;103079.62;2290121;76;50496;-73
2023/02/05 15:37:31;;;;;;;;;;;;;;;17.66;58.10;103077.55;2274790;76;51498;-73
2023/02/05 15:40:33;;;;;;;;;;;;;;;17.52;58.57;103083.09;2243465;78;51748;-73
2023/02/05 15:43:34;;;;;;;;;;;;;;;17.43;58.75;103073.09;2266359;77;50477;-74
2023/02/05 15:46:36;;;;;;;;;;;;;;;17.38;58.82;103079.64;2266593;78;50488;-75
2023/02/05 15:49:39;;;;;;;;;;;;;;;17.39;58.80;103091.19;2266622;77;50402;-74
2023/02/05 15:52:41;;;;;;;;;;;;;;;17.49;58.57;103093.55;2242788;78;52637;-74
2023/02/05 15:55:44;;;;;;;;;;;;;;;17.62;58.25;103096.14;2266673;77;51515;-73
2023/02/05 15:58:47;;;;;;;;;;;;;;;17.68;58.02;103089.00;2266303;78;51519;-73